Time;durP1;ratioP1;P1;durP2;ratioP2;P2;SDS_P1;SDS_P2;PMS_P1;PMS_P2;Temp;Humidity;BMP_temperature;BMP_pressure;BME280_temperature;BME280_humidity;BME280_pressure;Samples;Min_cycle;Max_cycle;Signal;HPM_P1;HPM_P2
2023/07/27 00:02:18;;;;;;;2.30;1.80;;;;;;;12.99;88.68;98948.79;435588;1253;140686;-68
2023/07/27 00:12:23;;;;;;;2.40;2.20;;;;;;;12.92;88.25;98942.76;435882;1253;140309;-69
2023/07/27 00:22:29;;;;;;;6.00;3.00;;;;;;;12.83;88.10;98942.73;436937;1256;141588;-69
2023/07/27 00:32:35;;;;;;;3.40;2.80;;;;;;;12.63;88.10;98960.05;435237;1253;139317;-69
2023/07/27 00:42:41;;;;;;;1.70;1.60;;;;;;;12.42;88.33;98968.27;435577;1256;139652;-70
2023/07/27 00:52:47;;;;;;;2.40;2.20;;;;;;;12.16;88.72;98971.52;435615;1256;139784;-69
2023/07/27 01:02:52;;;;;;;2.60;1.60;;;;;;;11.86;88.81;98966.17;435074;1256;139815;-69
2023/07/27 01:13:05;;;;;;;5.00;2.40;;;;;;;11.54;89.05;98969.71;434957;1256;139044;-69
2023/07/27 01:23:49;;;;;;;3.10;1.90;;;;;;;11.22;89.46;98968.98;435289;1254;139780;-69
2023/07/27 01:34:03;;;;;;;4.30;2.60;;;;;;;10.96;89.92;98965.52;435475;1256;139030;-69
2023/07/27 01:44:09;;;;;;;4.80;3.70;;;;;;;10.76;90.17;98966.45;435143;1256;139792;-68
2023/07/27 01:54:17;;;;;;;7.60;6.90;;;;;;;10.66;90.44;98973.71;435126;1256;139387;-67
2023/07/27 02:04:24;;;;;;;7.60;6.10;;;;;;;10.44;90.61;98979.31;436173;1256;139194;-69
2023/07/27 02:14:39;;;;;;;6.80;6.20;;;;;;;10.26;91.05;98984.41;435049;1257;139698;-69
2023/07/27 02:24:46;;;;;;;7.60;6.90;;;;;;;10.00;91.06;98990.49;435136;1256;139771;-68
2023/07/27 02:34:52;;;;;;;8.20;6.40;;;;;;;9.75;91.26;99006.58;435074;1256;139195;-69
2023/07/27 02:44:57;;;;;;;5.60;5.10;;;;;;;9.54;91.90;99015.66;434921;1256;139679;-68
2023/07/27 02:55:03;;;;;;;5.70;5.20;;;;;;;9.37;92.13;99024.34;435351;1254;139812;-70
2023/07/27 03:05:10;;;;;;;4.90;4.40;;;;;;;9.27;92.52;99039.34;435561;1256;139128;-69
2023/07/27 03:15:16;;;;;;;6.90;4.50;;;;;;;9.18;92.72;99042.23;436204;1253;138809;-69
2023/07/27 03:25:21;;;;;;;5.70;4.40;;;;;;;9.15;93.15;99040.17;435154;1256;139050;-69
2023/07/27 03:35:27;;;;;;;10.00;4.90;;;;;;;9.24;93.53;99046.35;434965;1254;139110;-69
2023/07/27 03:45:34;;;;;;;5.10;4.60;;;;;;;9.42;93.62;99057.55;434910;1256;140185;-69
2023/07/27 03:55:41;;;;;;;4.50;4.10;;;;;;;9.66;93.85;99065.92;434905;1257;139734;-67
2023/07/27 04:05:47;;;;;;;5.90;4.80;;;;;;;10.12;93.85;99061.02;436372;1255;138812;-68
2023/07/27 04:15:53;;;;;;;6.40;4.30;;;;;;;10.68;93.33;99063.52;434878;1258;140133;-67
2023/07/27 04:26:02;;;;;;;5.30;4.10;;;;;;;15.01;95.04;99061.57;434746;1256;139842;-67
2023/07/27 04:36:08;;;;;;;3.60;3.20;;;;;;;22.64;82.10;99060.19;435180;1257;140176;-68
2023/07/27 04:46:13;;;;;;;4.70;3.10;;;;;;;26.79;69.02;99054.81;434918;1258;140467;-68
2023/07/27 04:56:19;;;;;;;8.60;2.60;;;;;;;26.86;62.06;99055.44;434576;1256;138867;-66
2023/07/27 05:06:25;;;;;;;3.00;2.20;;;;;;;31.40;55.60;99049.65;443406;1253;139322;-65
2023/07/27 05:16:31;;;;;;;2.80;2.30;;;;;;;35.46;45.44;99048.79;436402;1257;138927;-67
2023/07/27 05:26:37;;;;;;;2.90;2.00;;;;;;;37.95;39.24;99052.73;435069;1254;139439;-67
2023/07/27 05:36:43;;;;;;;2.10;1.60;;;;;;;40.26;34.88;99051.30;435601;1255;138832;-66
2023/07/27 05:46:50;;;;;;;4.20;2.20;;;;;;;43.11;30.74;99052.91;435189;1253;139047;-66
2023/07/27 05:56:56;;;;;;;2.60;2.00;;;;;;;45.41;27.14;99055.39;434767;1257;139783;-65
2023/07/27 06:07:02;;;;;;;4.10;1.80;;;;;;;46.42;24.70;99052.83;436065;1254;139777;-74
2023/07/27 06:17:08;;;;;;;3.10;1.70;;;;;;;46.80;22.32;99052.77;435350;1254;139478;-65
2023/07/27 06:27:14;;;;;;;5.00;1.70;;;;;;;48.13;21.08;99048.16;434910;1254;139240;-66
2023/07/27 06:37:20;;;;;;;3.50;1.50;;;;;;;50.38;19.28;99042.57;434923;1256;140117;-65
2023/07/27 06:47:25;;;;;;;1.60;1.50;;;;;;;50.94;17.78;99043.13;435043;1254;138604;-65
2023/07/27 06:57:31;;;;;;;1.50;1.40;;;;;;;51.75;16.98;99046.33;434609;1255;138921;-65
2023/07/27 07:07:38;;;;;;;3.90;2.40;;;;;;;52.32;16.00;99043.83;435174;1256;139140;-70
2023/07/27 07:17:44;;;;;;;2.30;2.10;;;;;;;53.55;15.21;99043.57;438790;1253;139708;-68
2023/07/27 07:27:50;;;;;;;6.60;2.60;;;;;;;53.56;14.68;99040.75;436029;1254;139859;-71
2023/07/27 07:37:56;;;;;;;2.40;2.20;;;;;;;53.70;14.02;99042.95;438518;1253;185292;-68
2023/07/27 07:48:02;;;;;;;2.40;2.20;;;;;;;53.34;13.78;99044.45;438640;1253;138775;-68
2023/07/27 07:58:08;;;;;;;1.90;1.80;;;;;;;52.28;13.57;99039.37;437246;1254;140894;-65
2023/07/27 08:08:14;;;;;;;6.10;1.10;;;;;;;51.25;13.66;99029.02;435057;1253;139397;-65
2023/07/27 08:18:20;;;;;;;2.30;1.10;;;;;;;45.31;15.05;99026.02;435645;1253;140697;-63
2023/07/27 08:28:26;;;;;;;5.40;2.00;;;;;;;37.58;18.61;99029.51;435796;1254;138438;-68
2023/07/27 08:38:32;;;;;;;2.60;1.40;;;;;;;32.56;21.75;99033.88;438715;1254;138969;-72
2023/07/27 08:48:38;;;;;;;1.80;0.80;;;;;;;29.21;24.52;99032.45;438525;1254;138604;-69
2023/07/27 08:58:44;;;;;;;6.10;2.60;;;;;;;27.73;26.78;99026.04;438535;1254;138688;-65
2023/07/27 09:08:50;;;;;;;4.20;1.00;;;;;;;27.06;27.91;99021.88;436021;1256;139055;-71
2023/07/27 09:18:56;;;;;;;2.20;1.10;;;;;;;27.06;29.04;99023.67;438306;1253;139171;-69
2023/07/27 09:29:06;;;;;;;3.10;1.00;;;;;;;27.15;28.83;99021.13;437330;1256;138915;-68
2023/07/27 09:39:11;;;;;;;1.90;0.70;;;;;;;26.39;29.44;99014.59;438249;1253;138427;-70
2023/07/27 09:49:18;;;;;;;1.50;1.30;;;;;;;25.92;30.13;99011.64;435587;1253;139343;-65
2023/07/27 09:59:26;;;;;;;0.60;0.60;;;;;;;25.22;31.39;99011.78;435275;1254;139150;-70
2023/07/27 10:09:31;;;;;;;1.10;0.80;;;;;;;25.50;31.91;99004.30;439363;1253;138574;-70
2023/07/27 10:19:45;;;;;;;1.10;0.90;;;;;;;25.29;32.46;99000.82;438332;1256;139092;-67
2023/07/27 10:29:55;;;;;;;1.70;1.00;;;;;;;25.53;32.49;98995.95;437958;1253;138559;-74
2023/07/27 10:40:03;;;;;;;2.60;1.10;;;;;;;25.54;32.48;98990.00;438750;1254;140552;-74
2023/07/27 10:50:09;;;;;;;0.60;0.60;;;;;;;25.24;32.59;98985.23;438518;1254;138924;-73
2023/07/27 11:00:17;;;;;;;2.60;1.30;;;;;;;24.72;32.85;98983.56;439047;1253;138379;-71
2023/07/27 11:10:32;;;;;;;0.90;0.90;;;;;;;24.25;33.74;98971.81;438942;1253;138323;-77
2023/07/27 11:20:42;;;;;;;1.20;1.00;;;;;;;24.09;34.04;98958.94;438649;1253;140700;-70
2023/07/27 11:30:52;;;;;;;2.40;1.00;;;;;;;24.25;34.02;98950.35;439986;1253;139843;-73
2023/07/27 11:40:59;;;;;;;1.90;1.00;;;;;;;24.13;33.97;98942.27;438653;1253;138910;-72
2023/07/27 11:51:26;;;;;;;3.00;1.70;;;;;;;23.92;34.51;98932.44;439016;1253;139758;-67
2023/07/27 12:01:35;;;;;;;2.50;0.80;;;;;;;24.22;34.43;98916.41;435791;1253;139519;-69
2023/07/27 12:11:41;;;;;;;1.40;1.00;;;;;;;24.32;34.12;98906.14;436875;1253;138375;-72
2023/07/27 12:21:48;;;;;;;1.90;0.90;;;;;;;24.37;33.69;98901.19;438719;1253;140541;-73
2023/07/27 12:31:56;;;;;;;1.30;1.00;;;;;;;24.42;33.47;98887.48;438326;1256;139253;-68
2023/07/27 12:42:05;;;;;;;1.30;0.70;;;;;;;24.16;33.46;98874.77;437838;1253;137256;-69
2023/07/27 12:52:14;;;;;;;4.70;1.30;;;;;;;24.00;33.35;98867.95;435317;1256;140110;-71
2023/07/27 13:02:20;;;;;;;3.60;1.00;;;;;;;24.22;33.46;98867.09;438731;1256;138691;-70
2023/07/27 13:12:25;;;;;;;4.40;1.30;;;;;;;24.24;33.65;98865.77;435727;1254;138554;-70
2023/07/27 13:22:31;;;;;;;3.20;1.00;;;;;;;24.35;33.81;98856.08;439092;1256;138692;-73
2023/07/27 13:32:37;;;;;;;0.90;0.80;;;;;;;24.26;33.40;98855.88;436683;1253;139694;-70
2023/07/27 13:42:43;;;;;;;1.00;0.90;;;;;;;24.37;33.42;98846.84;437808;1254;137670;-66
2023/07/27 13:52:49;;;;;;;2.60;0.90;;;;;;;24.35;33.19;98836.73;435385;1254;138336;-71
2023/07/27 14:02:55;;;;;;;2.40;0.80;;;;;;;24.46;32.80;98827.30;438038;1253;139304;-66
2023/07/27 14:13:01;;;;;;;1.30;1.20;;;;;;;24.53;32.63;98823.34;437891;1253;138792;-68
2023/07/27 14:23:06;;;;;;;2.60;1.20;;;;;;;24.47;32.69;98822.77;435488;1253;138656;-66
2023/07/27 14:33:12;;;;;;;4.20;1.80;;;;;;;24.51;32.94;98821.50;437120;1254;139149;-74
2023/07/27 14:43:18;;;;;;;3.10;1.10;;;;;;;24.48;32.68;98809.67;436956;1254;139715;-68
2023/07/27 14:53:24;;;;;;;1.10;0.80;;;;;;;24.53;32.05;98805.38;435457;1253;138268;-68
2023/07/27 15:03:31;;;;;;;1.50;1.20;;;;;;;24.37;31.60;98794.17;435294;1256;138340;-69
2023/07/27 15:13:55;;;;;;;1.00;0.80;;;;;;;24.03;31.66;98796.02;435650;1253;139527;-66
2023/07/27 15:24:00;;;;;;;1.20;0.80;;;;;;;23.75;31.92;98801.60;434497;1256;139551;-66
2023/07/27 15:34:06;;;;;;;3.20;1.00;;;;;;;23.60;32.27;98797.27;434886;1253;139103;-65
2023/07/27 15:44:12;;;;;;;3.10;1.10;;;;;;;23.44;31.80;98794.23;434659;1254;139398;-65
2023/07/27 15:54:18;;;;;;;3.10;0.80;;;;;;;23.17;31.99;98793.39;434324;1256;139166;-66
2023/07/27 16:04:24;;;;;;;1.60;0.70;;;;;;;23.03;32.60;98786.11;434265;1254;139264;-64
2023/07/27 16:14:30;;;;;;;2.90;0.60;;;;;;;22.95;32.88;98776.73;433966;1256;138420;-65
2023/07/27 16:24:36;;;;;;;1.40;0.70;;;;;;;23.01;33.40;98770.29;434440;1253;139458;-65
2023/07/27 16:34:41;;;;;;;1.70;0.60;;;;;;;23.12;33.53;98770.16;434736;1256;138807;-67
2023/07/27 16:44:47;;;;;;;2.10;0.70;;;;;;;22.73;33.62;98769.88;434530;1253;139195;-68
2023/07/27 16:54:53;;;;;;;1.60;1.10;;;;;;;22.37;34.24;98767.82;434705;1253;139057;-73
2023/07/27 17:04:59;;;;;;;2.90;0.90;;;;;;;21.90;34.82;98768.16;434750;1256;138943;-72
2023/07/27 17:15:06;;;;;;;3.90;1.10;;;;;;;21.58;35.95;98771.05;438782;1253;140857;-73
2023/07/27 17:25:11;;;;;;;4.40;1.40;;;;;;;21.25;36.86;98771.75;439186;1253;139968;-72
2023/07/27 17:35:17;;;;;;;2.30;0.80;;;;;;;21.05;38.42;98769.25;438802;1256;138951;-72
2023/07/27 17:45:23;;;;;;;6.80;2.10;;;;;;;20.69;39.51;98783.65;438356;1256;138612;-72
2023/07/27 17:55:29;;;;;;;8.80;1.70;;;;;;;20.39;40.84;98777.94;438431;1253;139410;-72
2023/07/27 18:05:34;;;;;;;1.40;1.30;;;;;;;20.10;41.59;98776.48;438686;1253;139156;-73
2023/07/27 18:15:42;;;;;;;7.80;1.80;;;;;;;19.77;42.21;98777.00;438407;1253;138652;-73
2023/07/27 18:25:48;;;;;;;8.30;1.90;;;;;;;19.43;43.21;98772.95;438782;1253;139137;-73
2023/07/27 18:35:54;;;;;;;3.60;2.40;;;;;;;19.07;44.57;98775.95;438647;1254;138529;-73
2023/07/27 18:45:59;;;;;;;11.20;4.00;;;;;;;18.65;46.06;98765.49;438535;1253;139197;-73
2023/07/27 18:56:06;;;;;;;9.70;3.80;;;;;;;18.30;47.74;98773.76;438562;1253;141047;-73
2023/07/27 19:06:12;;;;;;;14.80;6.90;;;;;;;18.04;48.70;98782.90;438500;1253;138926;-73
2023/07/27 19:16:20;;;;;;;5.00;3.30;;;;;;;17.86;49.28;98778.00;438447;1253;138426;-73
2023/07/27 19:26:29;;;;;;;8.00;5.60;;;;;;;17.71;49.84;98765.45;438881;1253;138555;-72
2023/07/27 19:36:35;;;;;;;4.90;3.00;;;;;;;17.49;51.06;98763.58;435105;1253;139764;-71
2023/07/27 19:46:42;;;;;;;3.90;2.40;;;;;;;17.25;51.18;98757.58;434420;1256;138518;-70
2023/07/27 19:56:47;;;;;;;4.60;3.10;;;;;;;17.03;51.25;98749.98;435257;1253;139419;-71
2023/07/27 20:06:53;;;;;;;4.60;3.20;;;;;;;16.78;51.97;98745.40;435513;1253;140317;-70
2023/07/27 20:16:59;;;;;;;5.00;2.80;;;;;;;16.63;52.58;98738.30;435803;1254;138438;-72
2023/07/27 20:27:08;;;;;;;4.90;3.30;;;;;;;16.44;52.79;98732.29;436269;1256;140260;-71
2023/07/27 20:37:13;;;;;;;5.50;3.50;;;;;;;16.25;53.21;98730.26;436616;1256;139218;-71
2023/07/27 20:47:19;;;;;;;4.50;2.20;;;;;;;16.11;53.47;98726.73;435462;1256;138424;-72
2023/07/27 20:57:25;;;;;;;4.40;2.50;;;;;;;16.08;54.01;98718.95;438565;1256;138366;-72
2023/07/27 21:07:31;;;;;;;3.90;3.00;;;;;;;16.04;54.04;98715.09;438345;1254;138917;-72
2023/07/27 21:17:36;;;;;;;3.30;2.90;;;;;;;15.99;54.21;98712.27;435215;1256;138259;-72
2023/07/27 21:27:42;;;;;;;3.30;2.70;;;;;;;16.03;54.17;98703.43;435140;1256;138703;-72
2023/07/27 21:37:48;;;;;;;4.90;2.70;;;;;;;16.04;54.14;98706.81;435338;1256;140838;-71
2023/07/27 21:47:54;;;;;;;3.50;2.70;;;;;;;16.04;54.16;98703.80;435234;1256;139521;-72
2023/07/27 21:57:59;;;;;;;8.30;2.80;;;;;;;16.03;54.26;98689.96;435085;1254;140465;-73
2023/07/27 22:08:06;;;;;;;4.60;3.00;;;;;;;16.02;54.17;98680.33;434911;1255;139580;-73
2023/07/27 22:18:12;;;;;;;2.80;2.40;;;;;;;16.12;53.77;98674.77;440550;1257;138259;-71
2023/07/27 22:28:18;;;;;;;3.70;2.30;;;;;;;16.24;53.33;98667.94;439083;1253;138527;-71
2023/07/27 22:38:24;;;;;;;3.30;2.60;;;;;;;16.31;53.37;98668.30;434834;1256;139260;-73
2023/07/27 22:48:30;;;;;;;2.10;1.90;;;;;;;16.35;53.71;98662.77;435230;1256;138443;-72
2023/07/27 22:58:35;;;;;;;4.20;2.40;;;;;;;16.34;54.37;98658.28;434800;1257;139538;-72
2023/07/27 23:08:41;;;;;;;2.90;2.60;;;;;;;16.31;55.51;98641.78;435238;1257;139172;-72
2023/07/27 23:18:48;;;;;;;6.50;3.40;;;;;;;16.29;55.91;98630.73;435677;1257;139172;-71
2023/07/27 23:28:54;;;;;;;6.40;2.90;;;;;;;16.25;57.03;98627.88;438853;1255;138326;-73
2023/07/27 23:39:16;;;;;;;3.60;2.70;;;;;;;16.21;58.15;98621.95;439251;1257;138543;-72
2023/07/27 23:49:26;;;;;;;3.10;2.80;;;;;;;16.17;58.22;98618.88;439308;1257;139988;-74
2023/07/27 23:59:35;;;;;;;3.10;2.70;;;;;;;16.12;57.72;98614.89;439173;1256;140217;-73
